createdAt,value
2019-02-18T00:00:39.943Z,3.72
2019-02-18T00:01:39.898Z,3.76
2019-02-18T00:02:39.896Z,3.70
2019-02-18T00:03:39.874Z,3.81
2019-02-18T00:04:39.863Z,3.81
2019-02-18T00:05:39.877Z,3.84
2019-02-18T00:06:39.840Z,3.81
2019-02-18T00:07:39.829Z,3.81
2019-02-18T00:08:39.818Z,3.76
2019-02-18T00:09:39.812Z,3.70
2019-02-18T00:10:39.853Z,3.70
2019-02-18T00:11:39.786Z,3.64
2019-02-18T00:12:39.778Z,3.63
2019-02-18T00:13:39.764Z,3.70
2019-02-18T00:14:39.752Z,3.70
2019-02-18T00:15:39.769Z,3.67
2019-02-18T00:16:39.735Z,3.59
2019-02-18T00:17:39.720Z,3.69
2019-02-18T00:18:39.715Z,3.64
2019-02-18T00:19:39.700Z,3.66
2019-02-18T00:20:39.712Z,3.66
2019-02-18T00:21:39.679Z,3.54
2019-02-18T00:22:39.665Z,3.59
2019-02-18T00:23:39.654Z,3.63
2019-02-18T00:24:39.647Z,3.62
2019-02-18T00:25:39.662Z,3.54
2019-02-18T00:26:39.622Z,3.54
2019-02-18T00:27:39.610Z,3.54
2019-02-18T00:28:39.609Z,3.59
2019-02-18T00:29:39.595Z,3.45
2019-02-18T00:30:39.612Z,3.45
2019-02-18T00:31:39.571Z,3.48
2019-02-18T00:32:39.556Z,3.36
2019-02-18T00:33:39.546Z,3.36
2019-02-18T00:34:39.534Z,3.33
2019-02-18T00:35:39.545Z,3.30
2019-02-18T00:36:39.513Z,3.29
2019-02-18T00:37:39.503Z,3.23
2019-02-18T00:38:39.493Z,3.22
2019-02-18T00:39:39.484Z,3.22
2019-02-18T00:40:39.492Z,3.23
2019-02-18T00:41:39.460Z,3.33
2019-02-18T00:42:39.447Z,3.29
2019-02-18T00:43:39.436Z,3.17
2019-02-18T00:44:39.425Z,3.18
2019-02-18T00:45:39.446Z,3.20
2019-02-18T00:46:39.405Z,3.30
2019-02-18T00:47:39.394Z,3.27
2019-02-18T00:48:39.382Z,3.29
2019-02-18T00:49:39.369Z,3.33
2019-02-18T00:50:39.359Z,3.36
2019-02-18T00:51:39.449Z,3.30
2019-02-18T00:52:39.340Z,3.36
2019-02-18T00:53:39.330Z,3.29
2019-02-18T00:54:39.315Z,3.22
2019-02-18T00:55:39.304Z,3.27
2019-02-18T00:56:39.318Z,3.20
2019-02-18T00:57:39.282Z,3.29
2019-02-18T00:58:39.275Z,3.18
2019-02-18T00:59:39.258Z,3.17
2019-02-18T01:00:39.249Z,3.20
2019-02-18T01:01:39.261Z,3.15
2019-02-18T01:02:39.229Z,3.17
2019-02-18T01:03:39.216Z,3.18
2019-02-18T01:04:39.212Z,3.14
2019-02-18T01:05:39.219Z,3.15
2019-02-18T01:06:39.206Z,3.14
2019-02-18T01:07:39.173Z,3.12
2019-02-18T01:08:39.161Z,3.05
2019-02-18T01:09:39.151Z,3.08
2019-02-18T01:10:39.138Z,3.12
2019-02-18T01:11:39.153Z,3.08
2019-02-18T01:12:39.121Z,3.05
2019-02-18T01:13:39.107Z,3.04
2019-02-18T01:14:39.096Z,3.07
2019-02-18T01:15:39.085Z,3.09
2019-02-18T01:16:39.323Z,3.11
2019-02-18T01:17:39.062Z,3.08
2019-02-18T01:18:39.065Z,3.07
2019-02-18T01:19:39.041Z,3.02
2019-02-18T01:20:39.031Z,2.93
2019-02-18T01:21:39.019Z,2.96
2019-02-18T01:22:39.032Z,3.00
2019-02-18T01:23:38.997Z,2.99
2019-02-18T01:24:38.985Z,3.07
2019-02-18T01:25:38.975Z,3.00
2019-02-18T01:26:38.965Z,2.99
2019-02-18T01:27:38.977Z,2.97
2019-02-18T01:28:38.944Z,2.94
2019-02-18T01:29:38.931Z,3.02
2019-02-18T01:30:38.924Z,3.02
2019-02-18T01:31:38.911Z,3.04
2019-02-18T01:32:38.933Z,3.09
2019-02-18T01:33:38.896Z,3.08
2019-02-18T01:34:38.882Z,3.07
2019-02-18T01:35:38.869Z,3.18
2019-02-18T01:36:38.863Z,3.15
2019-02-18T01:37:45.596Z,3.18
2019-02-18T01:38:38.836Z,3.15
2019-02-18T01:39:38.822Z,3.14
2019-02-18T01:40:38.811Z,3.14
2019-02-18T01:41:38.798Z,3.15
2019-02-18T01:42:38.813Z,3.07
2019-02-18T01:43:38.779Z,3.05
2019-02-18T01:44:38.769Z,3.12
2019-02-18T01:45:38.761Z,3.04
2019-02-18T01:46:38.746Z,3.00
2019-02-18T01:47:38.756Z,3.05
2019-02-18T01:48:38.724Z,3.05
2019-02-18T01:49:38.712Z,3.07
2019-02-18T01:50:38.700Z,2.97
2019-02-18T01:51:38.690Z,2.94
2019-02-18T01:52:38.714Z,2.90
2019-02-18T01:53:38.666Z,2.84
2019-02-18T01:54:38.656Z,2.81
2019-02-18T01:55:38.645Z,2.76
2019-02-18T01:56:38.633Z,2.81
2019-02-18T01:57:38.624Z,2.78
2019-02-18T01:58:38.637Z,2.79
2019-02-18T01:59:38.715Z,2.87
2019-02-18T02:00:38.593Z,2.82
2019-02-18T02:01:38.579Z,2.76
2019-02-18T02:02:38.576Z,2.86
2019-02-18T02:03:38.586Z,2.75
2019-02-18T02:04:38.547Z,2.82
2019-02-18T02:05:38.535Z,2.89
2019-02-18T02:06:38.524Z,2.90
2019-02-18T02:07:38.514Z,2.89
2019-02-18T02:08:38.528Z,2.90
2019-02-18T02:09:38.505Z,2.93
2019-02-18T02:10:38.483Z,2.90
2019-02-18T02:11:38.469Z,2.93
2019-02-18T02:12:38.459Z,2.86
2019-02-18T02:13:38.471Z,3.04
2019-02-18T02:14:38.439Z,2.99
2019-02-18T02:15:38.427Z,2.97
2019-02-18T02:16:38.417Z,2.99
2019-02-18T02:17:38.405Z,2.96
2019-02-18T02:18:38.424Z,2.93
2019-02-18T02:19:38.384Z,2.91
2019-02-18T02:20:38.373Z,2.86
2019-02-18T02:21:38.361Z,2.81
2019-02-18T02:22:38.368Z,2.78
2019-02-18T02:23:38.363Z,2.81
2019-02-18T02:24:38.329Z,2.72
2019-02-18T02:25:38.316Z,2.73
2019-02-18T02:26:38.311Z,2.84
2019-02-18T02:27:38.294Z,2.76
2019-02-18T02:28:38.319Z,2.82
2019-02-18T02:29:38.278Z,2.84
2019-02-18T02:30:38.262Z,2.81
2019-02-18T02:31:38.263Z,2.82
2019-02-18T02:32:38.240Z,2.76
2019-02-18T02:33:38.254Z,2.81
2019-02-18T02:34:38.218Z,2.76
2019-02-18T02:35:38.208Z,2.75
2019-02-18T02:36:38.204Z,2.73
2019-02-18T02:37:38.186Z,2.71
2019-02-18T02:38:38.200Z,2.61
2019-02-18T02:39:38.169Z,2.68
2019-02-18T02:40:38.165Z,2.60
2019-02-18T02:41:38.144Z,2.72
2019-02-18T02:42:38.131Z,2.61
2019-02-18T02:43:38.145Z,2.65
2019-02-18T02:44:38.108Z,2.65
2019-02-18T02:45:38.098Z,2.63
2019-02-18T02:46:38.087Z,2.57
2019-02-18T02:47:38.079Z,2.54
2019-02-18T02:48:38.087Z,2.60
2019-02-18T02:49:38.059Z,2.57
2019-02-18T02:50:38.047Z,2.47
2019-02-18T02:51:38.032Z,2.45
2019-02-18T02:52:38.024Z,2.48
2019-02-18T02:53:38.060Z,2.40
2019-02-18T02:54:38.003Z,2.33
2019-02-18T02:55:37.988Z,2.43
2019-02-18T02:56:37.979Z,2.45
2019-02-18T02:57:37.966Z,2.45
2019-02-18T02:58:37.955Z,2.45
2019-02-18T02:59:37.967Z,2.37
2019-02-18T03:00:37.933Z,2.36
2019-02-18T03:01:37.925Z,2.24
2019-02-18T03:02:37.914Z,2.28
2019-02-18T03:03:37.901Z,2.24
2019-02-18T03:04:37.911Z,2.36
2019-02-18T03:05:37.881Z,2.28
2019-02-18T03:06:37.884Z,2.22
2019-02-18T03:07:37.861Z,2.21
2019-02-18T03:08:37.903Z,2.24
2019-02-18T03:09:37.861Z,2.30
2019-02-18T03:10:37.825Z,2.21
2019-02-18T03:11:37.820Z,2.21
2019-02-18T03:12:37.802Z,2.32
2019-02-18T03:13:37.795Z,2.35
2019-02-18T03:14:37.804Z,2.30
2019-02-18T03:15:37.770Z,2.30
2019-02-18T03:16:37.757Z,2.29
2019-02-18T03:17:37.746Z,2.25
2019-02-18T03:18:37.738Z,2.29
2019-02-18T03:19:37.747Z,2.36
2019-02-18T03:20:37.721Z,2.30
2019-02-18T03:21:37.707Z,2.29
2019-02-18T03:22:37.745Z,2.32
2019-02-18T03:23:37.681Z,2.36
2019-02-18T03:24:37.697Z,2.36
2019-02-18T03:25:37.661Z,2.37
2019-02-18T03:26:37.657Z,2.30
2019-02-18T03:27:37.639Z,2.28
2019-02-18T03:28:37.625Z,2.25
2019-02-18T03:29:37.855Z,2.24
2019-02-18T03:30:37.613Z,2.21
2019-02-18T03:31:37.613Z,2.15
2019-02-18T03:32:37.585Z,2.21
2019-02-18T03:33:37.573Z,2.15
2019-02-18T03:34:37.567Z,2.21
2019-02-18T03:35:37.573Z,2.19
2019-02-18T03:36:37.541Z,2.12
2019-02-18T03:37:37.529Z,2.12
2019-02-18T03:38:37.519Z,2.14
2019-02-18T03:39:37.514Z,2.19
2019-02-18T03:40:37.520Z,2.11
2019-02-18T03:41:37.487Z,2.21
2019-02-18T03:42:37.477Z,2.21
2019-02-18T03:43:37.462Z,2.11
2019-02-18T03:44:37.454Z,2.18
2019-02-18T03:45:37.468Z,2.12
2019-02-18T03:46:37.431Z,2.21
2019-02-18T03:47:37.423Z,2.22
2019-02-18T03:48:37.420Z,2.12
2019-02-18T03:49:37.448Z,2.10
2019-02-18T03:50:37.420Z,1.97
2019-02-18T03:51:37.376Z,2.10
2019-02-18T03:52:37.366Z,2.12
2019-02-18T03:53:37.352Z,2.04
2019-02-18T03:54:37.345Z,2.01
2019-02-18T03:55:37.366Z,2.10
2019-02-18T03:56:37.323Z,2.01
2019-02-18T03:57:37.314Z,1.99
2019-02-18T03:58:37.302Z,1.99
2019-02-18T03:59:37.328Z,2.00
2019-02-18T04:00:37.300Z,2.10
2019-02-18T04:01:37.267Z,2.11
2019-02-18T04:02:37.256Z,2.11
2019-02-18T04:03:37.243Z,2.07
2019-02-18T04:04:37.290Z,2.04
2019-02-18T04:05:37.247Z,2.11
2019-02-18T04:06:37.216Z,2.18
2019-02-18T04:07:37.208Z,2.07
2019-02-18T04:08:42.969Z,2.21
2019-02-18T04:09:37.182Z,2.18
2019-02-18T04:10:37.206Z,2.15
2019-02-18T04:11:37.159Z,2.12
2019-02-18T04:12:37.147Z,2.19
2019-02-18T04:13:37.140Z,2.19
2019-02-18T04:14:37.123Z,2.14
2019-02-18T04:15:37.159Z,2.12
2019-02-18T04:16:37.102Z,2.12
2019-02-18T04:17:37.090Z,2.11
2019-02-18T04:18:37.079Z,2.01
2019-02-18T04:19:37.092Z,2.14
2019-02-18T04:20:37.058Z,2.03
2019-02-18T04:21:37.071Z,1.99
2019-02-18T04:22:37.035Z,2.00
2019-02-18T04:23:37.032Z,1.99
2019-02-18T04:24:37.012Z,1.99
2019-02-18T04:25:37.010Z,1.93
2019-02-18T04:26:37.041Z,2.00
2019-02-18T04:27:36.985Z,1.91
2019-02-18T04:28:36.971Z,1.93
2019-02-18T04:29:36.964Z,1.92
2019-02-18T04:30:36.952Z,1.95
2019-02-18T04:31:36.964Z,1.93
2019-02-18T04:32:36.925Z,1.89
2019-02-18T04:33:36.920Z,1.85
2019-02-18T04:34:36.915Z,1.91
2019-02-18T04:35:36.891Z,1.80
2019-02-18T04:36:36.907Z,1.87
2019-02-18T04:37:36.877Z,1.87
2019-02-18T04:38:36.863Z,1.87
2019-02-18T04:39:36.851Z,1.74
2019-02-18T04:40:36.837Z,1.85
2019-02-18T04:41:36.857Z,1.84
2019-02-18T04:42:36.829Z,1.82
2019-02-18T04:43:36.804Z,1.85
2019-02-18T04:44:36.808Z,1.85
2019-02-18T04:45:36.783Z,1.77
2019-02-18T04:46:36.805Z,1.77
2019-02-18T04:47:36.763Z,1.87
2019-02-18T04:48:36.749Z,1.74
2019-02-18T04:49:36.739Z,1.81
2019-02-18T04:50:36.729Z,1.82
2019-02-18T04:51:36.768Z,1.82
2019-02-18T04:52:36.717Z,1.77
2019-02-18T04:53:36.696Z,1.77
2019-02-18T04:54:36.686Z,1.75
2019-02-18T04:55:36.674Z,1.74
2019-02-18T04:56:36.662Z,1.71
2019-02-18T04:57:36.676Z,1.84
2019-02-18T04:58:36.638Z,1.85
2019-02-18T04:59:36.645Z,1.85
2019-02-18T05:00:36.619Z,1.85
2019-02-18T05:01:36.675Z,1.84
2019-02-18T05:02:36.620Z,1.85
2019-02-18T05:03:36.588Z,1.91
2019-02-18T05:04:36.575Z,1.82
2019-02-18T05:05:36.565Z,1.80
2019-02-18T05:06:36.557Z,1.82
2019-02-18T05:07:36.562Z,1.80
2019-02-18T05:08:36.545Z,1.74
2019-02-18T05:09:36.517Z,1.78
2019-02-18T05:10:36.508Z,1.80
2019-02-18T05:11:36.497Z,1.77
2019-02-18T05:12:36.508Z,1.85
2019-02-18T05:13:36.473Z,1.73
2019-02-18T05:14:36.463Z,1.73
2019-02-18T05:15:36.454Z,1.71
2019-02-18T05:16:36.441Z,1.75
2019-02-18T05:17:36.459Z,1.69
2019-02-18T05:18:36.422Z,1.67
2019-02-18T05:19:36.422Z,1.71
2019-02-18T05:20:36.396Z,1.63
2019-02-18T05:21:36.389Z,1.64
2019-02-18T05:22:36.406Z,1.74
2019-02-18T05:23:36.364Z,1.73
2019-02-18T05:24:36.354Z,1.78
2019-02-18T05:25:36.340Z,1.71
2019-02-18T05:26:36.331Z,1.75
2019-02-18T05:27:36.344Z,1.77
2019-02-18T05:28:36.313Z,1.71
2019-02-18T05:29:36.299Z,1.73
2019-02-18T05:30:36.290Z,1.73
2019-02-18T05:31:36.281Z,1.66
2019-02-18T05:32:36.289Z,1.55
2019-02-18T05:33:36.253Z,1.60
2019-02-18T05:34:36.244Z,1.62
2019-02-18T05:35:36.231Z,1.62
2019-02-18T05:36:36.289Z,1.69
2019-02-18T05:37:36.235Z,1.60
2019-02-18T05:38:36.206Z,1.67
2019-02-18T05:39:36.191Z,1.59
2019-02-18T05:40:36.177Z,1.59
2019-02-18T05:41:36.177Z,1.62
2019-02-18T05:42:36.205Z,1.59
2019-02-18T05:43:36.143Z,1.69
2019-02-18T05:44:36.138Z,1.73
2019-02-18T05:45:36.124Z,1.59
2019-02-18T05:46:36.110Z,1.62
2019-02-18T05:47:36.124Z,1.63
2019-02-18T05:48:36.090Z,1.69
2019-02-18T05:49:36.078Z,1.80
2019-02-18T05:50:36.069Z,1.71
2019-02-18T05:51:36.056Z,1.67
2019-02-18T05:52:36.071Z,1.67
2019-02-18T05:53:36.033Z,1.63
2019-02-18T05:54:36.088Z,1.64
2019-02-18T05:55:36.015Z,1.67
2019-02-18T05:56:36.008Z,1.67
2019-02-18T05:57:36.016Z,1.77
2019-02-18T05:58:35.981Z,1.66
2019-02-18T05:59:35.970Z,1.67
2019-02-18T06:00:35.959Z,1.66
2019-02-18T06:01:35.947Z,1.60
2019-02-18T06:02:35.962Z,1.59
2019-02-18T06:03:35.925Z,1.56
2019-02-18T06:04:35.914Z,1.60
2019-02-18T06:05:35.904Z,1.52
2019-02-18T06:06:35.962Z,1.56
2019-02-18T06:07:35.904Z,1.57
2019-02-18T06:08:35.871Z,1.48
2019-02-18T06:09:35.862Z,1.57
2019-02-18T06:10:35.848Z,1.48
2019-02-18T06:11:35.836Z,1.44
2019-02-18T06:12:35.863Z,1.42
2019-02-18T06:13:35.815Z,1.52
2019-02-18T06:14:35.804Z,1.42
2019-02-18T06:15:35.794Z,1.39
2019-02-18T06:16:35.782Z,1.46
2019-02-18T06:17:35.777Z,1.38
2019-02-18T06:18:35.791Z,1.45
2019-02-18T06:19:35.752Z,1.38
2019-02-18T06:20:35.737Z,1.45
2019-02-18T06:21:35.729Z,1.36
2019-02-18T06:22:38.377Z,1.41
2019-02-18T06:23:35.728Z,1.35
2019-02-18T06:24:35.693Z,1.35
2019-02-18T06:25:35.683Z,1.30
2019-02-18T06:26:35.677Z,1.28
2019-02-18T06:27:35.661Z,1.28
2019-02-18T06:28:35.677Z,1.24
2019-02-18T06:29:35.647Z,1.23
2019-02-18T06:30:35.633Z,1.27
2019-02-18T06:31:35.620Z,1.28
2019-02-18T06:32:35.606Z,1.31
2019-02-18T06:33:35.619Z,1.24
2019-02-18T06:34:35.586Z,1.30
2019-02-18T06:35:35.571Z,1.23
2019-02-18T06:36:35.563Z,1.21
2019-02-18T06:37:35.552Z,1.27
2019-02-18T06:38:35.568Z,1.28
2019-02-18T06:39:41.324Z,1.27
2019-02-18T06:40:35.521Z,1.34
2019-02-18T06:41:35.511Z,1.38
2019-02-18T06:42:35.501Z,1.36
2019-02-18T06:43:35.509Z,1.44
2019-02-18T06:44:35.473Z,1.46
2019-02-18T06:45:35.462Z,1.46
2019-02-18T06:46:35.450Z,1.39
2019-02-18T06:47:35.461Z,1.34
2019-02-18T06:48:35.456Z,1.42
2019-02-18T06:49:35.423Z,1.41
2019-02-18T06:50:35.408Z,1.41
2019-02-18T06:51:35.401Z,1.44
2019-02-18T06:52:35.390Z,1.42
2019-02-18T06:53:35.402Z,1.45
2019-02-18T06:54:35.365Z,1.45
2019-02-18T06:55:35.359Z,1.49
2019-02-18T06:56:35.342Z,1.38
2019-02-18T06:57:35.435Z,1.48
2019-02-18T06:58:35.359Z,1.42
2019-02-18T06:59:35.314Z,1.45
2019-02-18T07:00:35.304Z,1.44
2019-02-18T07:01:35.286Z,1.56
2019-02-18T07:02:35.276Z,1.55
2019-02-18T07:03:35.266Z,1.56
2019-02-18T07:04:35.276Z,1.55
2019-02-18T07:05:35.275Z,1.55
2019-02-18T07:06:35.230Z,1.56
2019-02-18T07:07:35.223Z,1.57
2019-02-18T07:08:35.212Z,1.59
2019-02-18T07:09:35.221Z,1.59
2019-02-18T07:10:35.187Z,1.55
2019-02-18T07:11:35.188Z,1.53
2019-02-18T07:12:35.166Z,1.49
2019-02-18T07:13:35.154Z,1.55
2019-02-18T07:14:35.322Z,1.55
2019-02-18T07:15:35.142Z,1.55
2019-02-18T07:16:35.127Z,1.57
2019-02-18T07:17:35.133Z,1.52
2019-02-18T07:18:35.101Z,1.60
2019-02-18T07:19:35.130Z,1.60
2019-02-18T07:20:35.082Z,1.63
2019-02-18T07:21:35.075Z,1.59
2019-02-18T07:22:35.056Z,1.60
2019-02-18T07:23:35.044Z,1.59
2019-02-18T07:24:35.057Z,1.60
2019-02-18T07:25:35.023Z,1.62
2019-02-18T07:26:35.014Z,1.60
2019-02-18T07:27:35.003Z,1.60
2019-02-18T07:28:34.992Z,1.74
2019-02-18T07:29:35.005Z,1.69
2019-02-18T07:30:34.986Z,1.73
2019-02-18T07:31:34.957Z,1.71
2019-02-18T07:32:34.949Z,1.71
2019-02-18T07:33:34.937Z,1.78
2019-02-18T07:34:34.965Z,1.77
2019-02-18T07:35:34.911Z,1.85
2019-02-18T07:36:35.185Z,1.85
2019-02-18T07:37:34.892Z,1.85
2019-02-18T07:38:34.881Z,1.89
2019-02-18T07:39:34.872Z,1.99
2019-02-18T07:40:34.882Z,1.97
2019-02-18T07:41:34.849Z,2.00
2019-02-18T07:42:34.836Z,2.01
2019-02-18T07:43:34.852Z,2.00
2019-02-18T07:44:34.813Z,2.11
2019-02-18T07:45:34.825Z,2.06
2019-02-18T07:46:34.910Z,2.03
2019-02-18T07:47:34.787Z,2.12
2019-02-18T07:48:36.727Z,2.18
2019-02-18T07:49:34.757Z,2.32
2019-02-18T07:50:34.773Z,2.25
2019-02-18T07:51:34.740Z,2.29
2019-02-18T07:52:34.726Z,2.40
2019-02-18T07:53:34.718Z,2.36
2019-02-18T07:54:34.705Z,2.51
2019-02-18T07:55:34.825Z,2.43
2019-02-18T07:56:34.685Z,2.57
2019-02-18T07:57:34.670Z,2.66
2019-02-18T07:58:34.661Z,2.76
2019-02-18T07:59:34.653Z,2.75
2019-02-18T08:00:34.719Z,2.86
2019-02-18T08:01:34.628Z,2.87
2019-02-18T08:02:34.616Z,2.90
2019-02-18T08:03:34.605Z,2.87
2019-02-18T08:04:34.597Z,3.00
2019-02-18T08:05:34.605Z,3.04
2019-02-18T08:06:34.575Z,3.02
2019-02-18T08:07:34.569Z,3.14
2019-02-18T08:08:34.550Z,3.09
2019-02-18T08:09:34.542Z,3.08
2019-02-18T08:10:34.552Z,3.18
2019-02-18T08:11:34.518Z,3.20
2019-02-18T08:12:34.507Z,3.25
2019-02-18T08:13:34.500Z,3.30
2019-02-18T08:14:34.486Z,3.35
2019-02-18T08:15:34.498Z,3.33
2019-02-18T08:16:34.463Z,3.45
2019-02-18T08:17:34.487Z,3.51
2019-02-18T08:18:34.444Z,3.49
2019-02-18T08:19:34.430Z,3.60
2019-02-18T08:20:34.456Z,3.55
2019-02-18T08:21:34.408Z,3.67
2019-02-18T08:22:34.404Z,3.63
2019-02-18T08:23:34.385Z,3.66
2019-02-18T08:24:34.375Z,3.76
2019-02-18T08:25:34.415Z,3.78
2019-02-18T08:26:34.381Z,3.94
2019-02-18T08:27:34.342Z,3.85
2019-02-18T08:28:34.333Z,3.94
2019-02-18T08:29:34.320Z,3.91
2019-02-18T08:30:34.312Z,4.03
2019-02-18T08:31:34.321Z,4.12
2019-02-18T08:32:34.290Z,4.10
2019-02-18T08:33:34.276Z,4.17
2019-02-18T08:34:34.269Z,4.26
2019-02-18T08:35:34.258Z,4.36
2019-02-18T08:36:34.279Z,4.38
2019-02-18T08:37:34.234Z,4.39
2019-02-18T08:38:34.257Z,4.54
2019-02-18T08:39:34.209Z,4.67
2019-02-18T08:40:34.198Z,4.71
2019-02-18T08:41:34.293Z,4.74
2019-02-18T08:42:34.347Z,4.75
2019-02-18T08:43:34.167Z,4.86
2019-02-18T08:44:34.179Z,4.97
2019-02-18T08:45:34.144Z,4.98
2019-02-18T08:46:34.158Z,5.06
2019-02-18T08:47:34.125Z,5.16
2019-02-18T08:48:34.115Z,5.21
2019-02-18T08:49:34.106Z,5.32
2019-02-18T08:50:34.091Z,5.29
2019-02-18T08:51:34.100Z,5.32
2019-02-18T08:52:34.067Z,5.51
2019-02-18T08:53:34.053Z,5.51
2019-02-18T08:54:34.047Z,5.61
2019-02-18T08:55:34.032Z,5.72
2019-02-18T08:56:34.046Z,5.84
2019-02-18T08:57:34.009Z,5.94
2019-02-18T08:58:33.999Z,5.91
2019-02-18T08:59:33.986Z,5.95
2019-02-18T09:00:33.974Z,6.11
2019-02-18T09:01:33.986Z,6.19
2019-02-18T09:02:33.962Z,6.30
2019-02-18T09:03:33.945Z,6.43
2019-02-18T09:04:33.938Z,6.47
2019-02-18T09:05:33.954Z,6.56
2019-02-18T09:06:33.935Z,6.57
2019-02-18T09:07:33.902Z,6.67
2019-02-18T09:08:33.889Z,6.67
2019-02-18T09:09:33.878Z,6.83
2019-02-18T09:10:34.223Z,6.89
2019-02-18T09:11:33.887Z,7.00
2019-02-18T09:12:33.844Z,7.11
2019-02-18T09:13:33.844Z,7.26
2019-02-18T09:14:33.823Z,7.33
2019-02-18T09:15:33.817Z,7.47
2019-02-18T09:16:33.835Z,7.64
2019-02-18T09:17:33.788Z,7.69
2019-02-18T09:18:33.779Z,7.81
2019-02-18T09:19:33.765Z,7.87
2019-02-18T09:20:33.751Z,8.05
2019-02-18T09:21:33.744Z,8.23
2019-02-18T09:22:33.761Z,8.34
2019-02-18T09:23:33.717Z,8.50
2019-02-18T09:24:33.708Z,8.63
2019-02-18T09:25:33.700Z,8.71
2019-02-18T09:26:33.689Z,8.78
2019-02-18T09:27:33.700Z,9.04
2019-02-18T09:28:33.665Z,9.03
2019-02-18T09:29:33.679Z,9.16
2019-02-18T09:30:33.641Z,9.36
2019-02-18T09:31:33.629Z,9.52
2019-02-18T09:32:33.642Z,9.55
2019-02-18T09:33:33.607Z,9.77
2019-02-18T09:34:33.596Z,9.90
2019-02-18T09:35:33.587Z,10.01
2019-02-18T09:36:33.574Z,10.10
2019-02-18T09:37:33.586Z,10.24
2019-02-18T09:38:33.550Z,10.38
2019-02-18T09:39:33.540Z,10.55
2019-02-18T09:40:43.935Z,10.52
2019-02-18T09:41:34.522Z,10.70
2019-02-18T09:42:33.536Z,10.72
2019-02-18T09:43:33.514Z,10.75
2019-02-18T09:44:33.495Z,10.80
2019-02-18T09:45:33.481Z,10.93
2019-02-18T09:46:33.463Z,11.04
2019-02-18T09:47:33.490Z,11.16
2019-02-18T09:48:33.447Z,11.19
2019-02-18T09:49:33.456Z,11.38
2019-02-18T09:50:33.425Z,11.41
2019-02-18T09:51:33.424Z,11.55
2019-02-18T09:52:33.396Z,11.69
2019-02-18T09:53:33.478Z,11.67
2019-02-18T09:54:33.372Z,11.80
2019-02-18T09:55:33.362Z,11.84
2019-02-18T09:56:33.350Z,12.04
2019-02-18T09:57:33.341Z,12.00
2019-02-18T09:58:33.352Z,12.21
2019-02-18T09:59:33.323Z,12.22
2019-02-18T10:00:33.426Z,12.28
2019-02-18T10:01:33.299Z,12.40
2019-02-18T10:02:33.282Z,12.47
2019-02-18T10:03:33.297Z,12.53
2019-02-18T10:04:33.263Z,12.69
2019-02-18T10:05:33.249Z,12.68
2019-02-18T10:06:33.239Z,12.65
2019-02-18T10:07:33.227Z,12.61
2019-02-18T10:08:33.240Z,12.69
2019-02-18T10:09:33.206Z,12.80
2019-02-18T10:10:33.233Z,12.87
2019-02-18T10:11:33.190Z,12.91
2019-02-18T10:12:33.180Z,13.04
2019-02-18T10:13:33.184Z,13.08
2019-02-18T10:14:33.155Z,13.14
2019-02-18T10:15:33.139Z,13.20
2019-02-18T10:16:33.129Z,13.26
2019-02-18T10:17:33.121Z,13.42
2019-02-18T10:18:33.130Z,13.47
2019-02-18T10:19:33.100Z,13.63
2019-02-18T10:20:33.088Z,13.71
2019-02-18T10:21:33.074Z,13.80
2019-02-18T10:22:33.085Z,13.96
2019-02-18T10:23:33.078Z,14.00
2019-02-18T10:24:33.048Z,14.13
2019-02-18T10:25:33.038Z,14.11
2019-02-18T10:26:33.021Z,14.27
2019-02-18T10:27:33.087Z,14.30
2019-02-18T10:28:33.023Z,14.37
2019-02-18T10:29:32.995Z,14.49
2019-02-18T10:30:32.979Z,14.59
2019-02-18T10:31:32.970Z,14.64
2019-02-18T10:32:32.957Z,14.71
2019-02-18T10:33:32.976Z,14.79
2019-02-18T10:34:32.941Z,14.83
2019-02-18T10:35:32.930Z,14.87
2019-02-18T10:36:32.911Z,14.93
2019-02-18T10:37:32.899Z,15.05
2019-02-18T10:38:32.928Z,15.25
2019-02-18T10:39:32.875Z,15.17
2019-02-18T10:40:32.864Z,15.14
2019-02-18T10:41:32.856Z,15.26
2019-02-18T10:42:32.842Z,15.40
2019-02-18T10:43:32.938Z,15.50
2019-02-18T10:44:32.842Z,15.65
2019-02-18T10:45:32.809Z,15.78
2019-02-18T10:46:32.799Z,15.85
2019-02-18T10:47:32.786Z,16.00
2019-02-18T10:48:32.774Z,16.09
2019-02-18T10:49:32.787Z,16.28
2019-02-18T10:50:32.753Z,16.39
2019-02-18T10:51:32.744Z,16.55
2019-02-18T10:52:32.729Z,16.62
2019-02-18T10:53:32.720Z,16.72
2019-02-18T10:54:32.730Z,16.88
2019-02-18T10:55:32.697Z,16.88
2019-02-18T10:56:32.695Z,16.98
2019-02-18T10:57:32.673Z,17.04
2019-02-18T10:58:32.662Z,17.20
2019-02-18T10:59:32.675Z,17.35
2019-02-18T11:00:32.641Z,17.53
2019-02-18T11:01:32.631Z,17.66
2019-02-18T11:02:32.618Z,17.81
2019-02-18T11:03:32.611Z,17.94
2019-02-18T11:04:32.627Z,18.11
2019-02-18T11:05:32.588Z,18.28
2019-02-18T11:06:32.574Z,18.34
2019-02-18T11:07:32.563Z,18.58
2019-02-18T11:08:32.552Z,18.64
2019-02-18T11:09:32.590Z,18.58
2019-02-18T11:10:32.534Z,18.68
2019-02-18T11:11:32.519Z,18.86
2019-02-18T11:12:32.511Z,19.13
2019-02-18T11:13:32.496Z,19.24
2019-02-18T11:14:32.493Z,19.32
2019-02-18T11:15:32.496Z,19.53
2019-02-18T11:16:32.466Z,19.59
2019-02-18T11:17:38.961Z,19.71
2019-02-18T11:18:32.445Z,19.77
2019-02-18T11:19:32.431Z,19.90
2019-02-18T11:20:32.443Z,19.96
2019-02-18T11:21:32.407Z,19.86
2019-02-18T11:22:32.394Z,19.77
2019-02-18T11:23:32.384Z,19.57
2019-02-18T11:24:32.430Z,19.60
2019-02-18T11:25:32.387Z,19.70
2019-02-18T11:26:32.352Z,19.57
2019-02-18T11:27:32.341Z,19.23
2019-02-18T11:28:32.333Z,18.94
2019-02-18T11:29:32.320Z,18.68
2019-02-18T11:30:32.331Z,18.39
2019-02-18T11:31:32.294Z,18.02
2019-02-18T11:32:32.291Z,17.87
2019-02-18T11:33:32.271Z,17.66
2019-02-18T11:34:32.260Z,17.54
2019-02-18T11:35:32.274Z,17.47
2019-02-18T11:36:32.238Z,17.35
2019-02-18T11:37:32.229Z,17.31
2019-02-18T11:38:32.215Z,17.22
2019-02-18T11:39:32.202Z,17.41
2019-02-18T11:40:32.350Z,17.65
2019-02-18T11:41:32.182Z,17.86
2019-02-18T11:42:32.171Z,18.20
2019-02-18T11:43:32.158Z,18.54
2019-02-18T11:44:32.149Z,18.76
2019-02-18T11:45:34.674Z,18.98
2019-02-18T11:46:32.128Z,19.07
2019-02-18T11:47:32.114Z,19.19
2019-02-18T11:48:32.103Z,19.26
2019-02-18T11:49:32.091Z,19.41
2019-02-18T11:50:32.107Z,19.72
2019-02-18T11:51:32.068Z,19.94
2019-02-18T11:52:32.058Z,20.00
2019-02-18T11:53:32.048Z,20.07
2019-02-18T11:54:32.037Z,20.15
2019-02-18T11:55:32.060Z,20.12
2019-02-18T11:56:32.016Z,20.05
2019-02-18T11:57:32.001Z,19.97
2019-02-18T11:58:31.989Z,19.96
2019-02-18T11:59:31.981Z,19.97
2019-02-18T12:00:32.010Z,20.09
2019-02-18T12:01:31.999Z,20.22
2019-02-18T12:02:31.950Z,20.37
2019-02-18T12:03:31.934Z,20.44
2019-02-18T12:04:31.924Z,20.49
2019-02-18T12:05:31.911Z,20.71
2019-02-18T12:06:31.923Z,20.80
2019-02-18T12:07:31.891Z,20.95
2019-02-18T12:08:31.884Z,21.05
2019-02-18T12:09:31.871Z,21.16
2019-02-18T12:10:31.859Z,21.30
2019-02-18T12:11:38.019Z,21.55
2019-02-18T12:12:31.835Z,21.75
2019-02-18T12:13:31.824Z,21.74
2019-02-18T12:14:31.814Z,21.73
2019-02-18T12:15:31.813Z,21.77
2019-02-18T12:16:31.819Z,21.82
2019-02-18T12:17:31.779Z,21.93
2019-02-18T12:18:31.769Z,21.93
2019-02-18T12:19:31.759Z,21.88
2019-02-18T12:20:31.757Z,21.84
2019-02-18T12:21:31.759Z,21.73
2019-02-18T12:22:31.726Z,21.60
2019-02-18T12:23:31.719Z,21.53
2019-02-18T12:24:31.706Z,21.41
2019-02-18T12:25:31.692Z,21.44
2019-02-18T12:26:31.706Z,21.47
2019-02-18T12:27:32.255Z,21.48
2019-02-18T12:28:31.663Z,21.63
2019-02-18T12:29:31.651Z,21.43
2019-02-18T12:30:32.521Z,21.45
2019-02-18T12:31:31.671Z,21.34
2019-02-18T12:32:31.619Z,21.23
2019-02-18T12:33:31.608Z,21.25
2019-02-18T12:34:31.596Z,21.20
2019-02-18T12:35:32.361Z,21.13
2019-02-18T12:36:31.596Z,21.08
2019-02-18T12:37:31.564Z,21.11
2019-02-18T12:38:31.558Z,21.05
2019-02-18T12:39:31.543Z,21.20
2019-02-18T12:40:31.531Z,21.19
2019-02-18T12:41:31.557Z,21.19
2019-02-18T12:42:31.543Z,21.16
2019-02-18T12:43:31.502Z,21.14
2019-02-18T12:44:31.489Z,21.26
2019-02-18T12:45:31.477Z,21.30
2019-02-18T12:46:31.469Z,21.34
2019-02-18T12:47:31.479Z,21.32
2019-02-18T12:48:31.449Z,21.29
2019-02-18T12:49:31.437Z,21.26
2019-02-18T12:50:31.425Z,21.18
2019-02-18T12:51:31.414Z,21.10
2019-02-18T12:52:31.429Z,21.10
2019-02-18T12:53:31.391Z,21.16
2019-02-18T12:54:31.379Z,21.19
2019-02-18T12:55:31.714Z,21.22
2019-02-18T12:56:31.360Z,21.20
2019-02-18T12:57:31.377Z,21.22
2019-02-18T12:58:31.337Z,21.13
2019-02-18T12:59:31.602Z,21.16
2019-02-18T13:00:31.313Z,21.13
2019-02-18T13:01:31.304Z,21.16
2019-02-18T13:02:31.315Z,21.19
2019-02-18T13:03:31.284Z,21.20
2019-02-18T13:04:32.000Z,21.26
2019-02-18T13:05:31.274Z,21.14
2019-02-18T13:06:31.249Z,21.20
2019-02-18T13:07:31.265Z,21.25
2019-02-18T13:08:31.229Z,21.25
2019-02-18T13:09:31.217Z,21.22
2019-02-18T13:10:34.857Z,21.14
2019-02-18T13:11:31.202Z,21.10